Time;durP1;ratioP1;P1;durP2;ratioP2;P2;SDS_P1;SDS_P2;PMS_P1;PMS_P2;Temp;Humidity;BMP_temperature;BMP_pressure;BME280_temperature;BME280_humidity;BME280_pressure;Samples;Min_cycle;Max_cycle;Signal;HPM_P1;HPM_P2
2022/04/02 00:01:42;;;;;;;6.53;3.75;;;;;;;;;;5073785;28;20112;-75
2022/04/02 00:04:09;;;;;;;9.90;5.60;;;;;;;;;;5073304;28;20388;-74
2022/04/02 00:06:35;;;;;;;5.43;3.90;;;;;;;;;;5073408;28;20398;-74
2022/04/02 00:09:02;;;;;;;5.78;3.60;;;;;;;;;;5072739;28;20372;-76
2022/04/02 00:11:28;;;;;;;6.30;4.43;;;;;;;;;;5073514;28;20052;-75
2022/04/02 00:13:54;;;;;;;6.60;4.38;;;;;;;;;;5073209;28;20094;-75
2022/04/02 00:16:20;;;;;;;8.88;4.57;;;;;;;;;;5077213;28;20084;-74
2022/04/02 00:18:49;;;;;;;8.32;3.65;;;;;;;;;;5075386;28;20020;-75
2022/04/02 00:21:15;;;;;;;6.10;3.15;;;;;;;;;;5072777;28;20065;-75
2022/04/02 00:23:44;;;;;;;7.10;3.92;;;;;;;;;;5067764;28;20032;-75
2022/04/02 00:26:11;;;;;;;8.68;3.70;;;;;;;;;;5068242;28;21618;-74
2022/04/02 00:28:38;;;;;;;10.73;5.38;;;;;;;;;;5066673;28;20075;-75
2022/04/02 00:31:05;;;;;;;16.00;6.38;;;;;;;;;;5063274;28;20028;-75
2022/04/02 00:33:31;;;;;;;11.85;7.10;;;;;;;;;;5071183;28;20029;-75
2022/04/02 00:35:57;;;;;;;10.00;6.55;;;;;;;;;;5069480;28;20021;-75
2022/04/02 00:38:23;;;;;;;11.65;6.78;;;;;;;;;;5066647;28;20029;-75
2022/04/02 00:40:50;;;;;;;11.95;8.48;;;;;;;;;;5070366;28;20024;-75
2022/04/02 00:43:42;;;;;;;15.07;9.15;;;;;;;;;;5066791;28;20757;-75
2022/04/02 00:46:10;;;;;;;11.18;8.80;;;;;;;;;;5059319;28;20500;-75
2022/04/02 00:48:37;;;;;;;13.52;9.57;;;;;;;;;;5070839;28;20020;-75
2022/04/02 00:51:05;;;;;;;12.02;9.38;;;;;;;;;;5071036;28;20023;-75
2022/04/02 00:53:32;;;;;;;12.25;8.20;;;;;;;;;;5071149;28;20032;-75
2022/04/02 00:55:59;;;;;;;12.90;9.48;;;;;;;;;;5070682;28;20021;-75
2022/04/02 00:58:25;;;;;;;11.32;8.38;;;;;;;;;;5072247;28;20039;-75
2022/04/02 01:00:51;;;;;;;13.40;9.23;;;;;;;;;;5072373;28;20044;-76
2022/04/02 01:03:18;;;;;;;15.40;10.73;;;;;;;;;;5071163;28;20025;-75
2022/04/02 01:05:45;;;;;;;17.33;12.50;;;;;;;;;;5071192;28;20024;-76
2022/04/02 01:08:11;;;;;;;32.33;21.63;;;;;;;;;;5070378;28;20530;-75
2022/04/02 01:10:41;;;;;;;39.60;29.73;;;;;;;;;;5068965;28;20387;-75
2022/04/02 01:13:08;;;;;;;25.42;19.30;;;;;;;;;;5062998;28;20057;-76
2022/04/02 01:15:34;;;;;;;20.67;14.30;;;;;;;;;;5063032;28;20021;-75
2022/04/02 01:18:00;;;;;;;9.27;7.00;;;;;;;;;;5063501;28;20012;-76
2022/04/02 01:20:28;;;;;;;11.27;7.60;;;;;;;;;;5087222;28;20029;-75
2022/04/02 01:22:54;;;;;;;12.27;6.95;;;;;;;;;;5052295;28;20051;-75
2022/04/02 01:25:20;;;;;;;8.35;5.85;;;;;;;;;;5066649;28;20048;-75
2022/04/02 01:27:47;;;;;;;9.63;6.22;;;;;;;;;;5068828;28;20021;-76
2022/04/02 01:30:14;;;;;;;8.38;6.05;;;;;;;;;;5071594;28;20021;-75
2022/04/02 01:32:41;;;;;;;11.82;6.95;;;;;;;;;;5073742;28;20177;-75
2022/04/02 01:35:08;;;;;;;8.70;6.35;;;;;;;;;;5070295;28;20073;-75
2022/04/02 01:37:35;;;;;;;12.93;6.10;;;;;;;;;;5072046;28;20069;-75
2022/04/02 01:40:02;;;;;;;9.80;6.18;;;;;;;;;;5070195;28;20028;-75
2022/04/02 01:42:28;;;;;;;19.17;13.15;;;;;;;;;;5071740;28;20025;-75
2022/04/02 01:44:54;;;;;;;13.52;7.72;;;;;;;;;;5072157;28;20024;-75
2022/04/02 01:47:20;;;;;;;10.60;6.65;;;;;;;;;;5069809;28;20399;-75
2022/04/02 01:49:47;;;;;;;12.02;6.68;;;;;;;;;;5071875;28;20035;-75
2022/04/02 01:52:15;;;;;;;9.23;7.00;;;;;;;;;;5070476;28;20030;-75
2022/04/02 01:54:41;;;;;;;16.65;13.00;;;;;;;;;;5071517;28;20016;-73
2022/04/02 01:57:07;;;;;;;13.00;9.70;;;;;;;;;;5066737;28;20017;-75
2022/04/02 01:59:33;;;;;;;13.05;9.88;;;;;;;;;;5071722;28;20533;-76
2022/04/02 02:02:00;;;;;;;15.77;10.02;;;;;;;;;;5061085;28;20028;-75
2022/04/02 02:04:26;;;;;;;14.30;10.13;;;;;;;;;;5059170;28;20027;-75
2022/04/02 02:06:53;;;;;;;11.82;7.97;;;;;;;;;;5069641;28;20055;-75
2022/04/02 02:09:19;;;;;;;10.32;7.45;;;;;;;;;;5071275;28;20052;-74
2022/04/02 02:11:45;;;;;;;13.20;7.70;;;;;;;;;;5071425;28;20059;-75
2022/04/02 02:14:11;;;;;;;13.15;7.60;;;;;;;;;;5069610;28;20048;-75
2022/04/02 02:16:37;;;;;;;12.43;7.35;;;;;;;;;;5069613;28;20365;-75
2022/04/02 02:19:03;;;;;;;10.15;6.68;;;;;;;;;;5070236;28;20029;-75
2022/04/02 02:21:29;;;;;;;11.77;6.30;;;;;;;;;;5074841;28;20476;-74
2022/04/02 02:23:56;;;;;;;7.35;5.57;;;;;;;;;;5060334;28;20032;-75
2022/04/02 02:26:22;;;;;;;14.13;6.35;;;;;;;;;;5068713;28;20020;-75
2022/04/02 02:28:49;;;;;;;9.65;5.88;;;;;;;;;;5071989;28;20056;-75
2022/04/02 02:31:15;;;;;;;12.20;6.93;;;;;;;;;;5073969;28;20086;-74
2022/04/02 02:36:25;;;;;;;11.18;6.55;;;;;;;;;;5074880;28;20162;-75
2022/04/02 02:38:52;;;;;;;9.98;7.28;;;;;;;;;;5073955;28;20024;-75
2022/04/02 02:41:18;;;;;;;9.88;6.30;;;;;;;;;;5075260;28;20032;-75
2022/04/02 02:43:44;;;;;;;11.57;6.32;;;;;;;;;;5072507;28;20028;-75
2022/04/02 02:46:17;;;;;;;11.90;7.90;;;;;;;;;;5073295;28;20036;-75
2022/04/02 02:48:43;;;;;;;12.02;6.45;;;;;;;;;;5073032;28;20496;-75
2022/04/02 02:51:09;;;;;;;12.93;7.72;;;;;;;;;;5073704;28;20028;-75
2022/04/02 02:53:35;;;;;;;13.23;7.43;;;;;;;;;;5072082;28;20507;-75
2022/04/02 02:56:01;;;;;;;12.73;7.50;;;;;;;;;;5073408;28;20025;-75
2022/04/02 02:58:27;;;;;;;12.35;8.18;;;;;;;;;;5072563;28;20025;-75
2022/04/02 03:00:54;;;;;;;23.42;15.35;;;;;;;;;;5074449;28;20024;-75
2022/04/02 03:03:22;;;;;;;14.38;8.90;;;;;;;;;;5074534;28;20178;-75
2022/04/02 03:05:48;;;;;;;14.98;8.65;;;;;;;;;;5074509;28;20391;-75
2022/04/02 03:08:15;;;;;;;9.70;6.70;;;;;;;;;;5073770;28;20020;-75
2022/04/02 03:10:41;;;;;;;12.70;7.60;;;;;;;;;;5074514;28;20021;-75
2022/04/02 03:13:08;;;;;;;15.15;6.68;;;;;;;;;;5074216;28;20502;-75
2022/04/02 03:15:34;;;;;;;9.57;6.30;;;;;;;;;;5073461;28;20048;-75
2022/04/02 03:18:08;;;;;;;9.15;6.00;;;;;;;;;;5075127;28;20024;-75
2022/04/02 03:20:34;;;;;;;;;;;;;;;;;;5075538;28;20029;-75
2022/04/02 03:23:00;;;;;;;14.38;9.73;;;;;;;;;;5079385;28;19926;-76
2022/04/02 03:25:26;;;;;;;13.80;8.63;;;;;;;;;;5075442;28;20031;-75
2022/04/02 03:27:53;;;;;;;18.35;11.50;;;;;;;;;;5074519;28;20016;-74
2022/04/02 03:30:21;;;;;;;16.35;11.43;;;256.60;2252.80;;;;;;5073767;28;20098;-75
2022/04/02 03:32:47;;;;;;;15.35;11.40;;;256.40;2252.80;;;;;;5073554;28;20045;-75
2022/04/02 03:35:15;;;;;;;17.13;12.15;;;256.40;2252.80;;;;;;5072852;28;20032;-75
2022/04/02 03:37:42;;;;;;;14.20;9.90;;;256.30;2252.80;;;;;;5073089;28;20429;-75
2022/04/02 03:40:10;;;;;;;13.27;8.05;;;;;;;;;;5072720;28;20384;-75
2022/04/02 03:42:39;;;;;;;10.52;7.45;;;;;;;;;;5074527;28;20031;-75
2022/04/02 03:45:06;;;;;;;10.30;6.20;;;256.20;2252.80;;;;;;5074214;28;20024;-75
2022/04/02 03:47:32;;;;;;;11.10;8.65;;;256.10;2252.80;;;;;;5074308;28;20083;-75
2022/04/02 03:49:58;;;;;;;12.43;9.23;;;;;;;;;;5074538;28;21272;-75
2022/04/02 03:52:25;;;;;;;11.52;8.75;;;;;;;;;;5073874;28;20025;-75
2022/04/02 03:54:51;;;;;;;13.00;7.70;;;;;;;;;;5073777;28;20107;-75
2022/04/02 03:57:18;;;;;;;11.60;7.22;;;;;;;;;;5072565;28;20017;-75
2022/04/02 03:59:44;;;;;;;14.05;10.20;;;;;;;;;;5073810;28;20021;-75
2022/04/02 04:02:11;;;;;;;12.18;10.00;;;;;;;;;;5072148;28;20017;-75
2022/04/02 04:04:37;;;;;;;17.35;11.98;;;;;;;;;;5075567;28;20044;-75
2022/04/02 04:07:04;;;;;;;14.07;10.32;;;;;;;;;;5076783;28;20028;-75
2022/04/02 04:09:30;;;;;;;13.20;11.10;;;;;;;;;;5078398;28;20085;-75
2022/04/02 04:11:56;;;;;;;11.45;9.60;;;;;;;;;;5073801;28;20024;-75
2022/04/02 04:14:24;;;;;;;19.92;10.98;;;;;;;;;;5072004;28;20403;-74
2022/04/02 04:16:51;;;;;;;13.85;10.88;;;256.00;2252.80;;;;;;5071921;28;20028;-75
2022/04/02 04:19:17;;;;;;;17.17;12.90;;;231.30;2252.80;;;;;;5071539;28;20055;-75
2022/04/02 04:21:43;;;;;;;18.25;13.35;;;231.30;2252.80;;;;;;5073503;28;20032;-75
2022/04/02 04:24:10;;;;;;;14.63;10.00;;;231.30;2252.80;;;;;;5072278;28;20024;-75
2022/04/02 04:26:36;;;;;;;13.75;8.93;;;231.30;2252.80;;;;;;5075853;28;20107;-75
2022/04/02 04:29:03;;;;;;;14.27;9.75;;;231.20;2252.80;;;;;;5072796;28;20033;-75
2022/04/02 04:31:29;;;;;;;14.07;11.23;;;231.30;2252.80;;;;;;5072051;28;20100;-75
2022/04/02 04:33:55;;;;;;;25.33;13.60;;;256.00;2252.80;;;;;;5072685;28;20040;-75
2022/04/02 04:36:22;;;;;;;15.32;11.82;;;256.10;2252.80;;;;;;5072993;28;20024;-74
2022/04/02 04:38:49;;;;;;;11.27;8.93;;;256.00;2252.80;;;;;;5072634;28;20021;-74
2022/04/02 04:41:17;;;;;;;11.98;9.02;;;231.30;2252.80;;;;;;5070385;28;20079;-76
2022/04/02 04:43:43;;;;;;;11.95;8.35;;;256.00;2252.80;;;;;;5072018;28;20028;-75
2022/04/02 04:46:09;;;;;;;18.23;13.35;;;231.30;2252.80;;;;;;5071596;28;20031;-75
2022/04/02 04:48:37;;;;;;;19.20;7.95;;;256.00;2252.80;;;;;;5069324;28;20040;-76
2022/04/02 04:51:04;;;;;;;14.88;9.77;;;256.00;2252.80;;;;;;5061934;28;20036;-75
2022/04/02 04:53:31;;;;;;;8.13;7.07;;;256.00;2252.80;;;;;;5066990;28;20029;-75
2022/04/02 04:55:57;;;;;;;9.75;7.95;;;256.00;2252.80;;;;;;5071247;28;20035;-75
2022/04/02 04:58:23;;;;;;;11.38;7.55;;;256.00;2252.80;;;;;;5059034;28;20021;-75
2022/04/02 05:00:50;;;;;;;9.95;8.05;;;256.20;2252.80;;;;;;5059338;28;20047;-74
2022/04/02 05:03:15;;;;;;;23.73;16.15;;;256.30;2252.80;;;;;;5072375;28;20029;-75
2022/04/02 05:05:41;;;;;;;25.80;18.58;;;256.50;2252.80;;;;;;5072508;28;20051;-75
2022/04/02 05:08:07;;;;;;;30.67;23.35;;;256.70;2252.80;;;;;;5070953;28;20028;-75
2022/04/02 05:10:40;;;;;;;41.10;25.42;;;256.70;2252.80;;;;;;5072336;28;20024;-74
2022/04/02 05:13:08;;;;;;;31.38;21.48;;;256.80;2252.80;;;;;;5070513;28;20055;-75
2022/04/02 05:15:39;;;;;;;24.25;18.13;;;256.90;2252.80;;;;;;5071341;28;20111;-75
2022/04/02 05:18:04;;;;;;;23.88;18.73;;;281.60;2278.40;;;;;;5060453;28;20017;-75
2022/04/02 05:20:30;;;;;;;21.35;16.73;;;281.70;2278.40;;;;;;5072398;28;20074;-75
2022/04/02 05:22:56;;;;;;;21.08;15.60;;;281.90;2278.40;;;;;;5070799;28;20024;-75
2022/04/02 05:25:21;;;;;;;21.38;14.15;;;282.00;2278.40;;;;;;5070829;28;20025;-74
2022/04/02 05:27:47;;;;;;;15.93;11.52;;;282.20;2278.40;;;;;;5076852;28;20084;-76
2022/04/02 05:30:14;;;;;;;19.88;14.60;;;282.30;2278.40;;;;;;5071043;28;20028;-75
2022/04/02 05:32:41;;;;;;;19.63;14.75;;;282.20;2278.40;;;;;;5071057;28;20044;-77
2022/04/02 05:35:07;;;;;;;22.35;16.50;;;282.30;2278.40;;;;;;5069784;28;20032;-75
2022/04/02 05:37:33;;;;;;;20.55;14.77;;;282.40;2278.40;;;;;;5071018;28;20147;-75
2022/04/02 05:39:58;;;;;;;22.30;14.48;;;282.40;1894.40;;;;;;5060430;28;20111;-75
2022/04/02 05:42:26;;;;;;;19.25;15.30;;;307.20;1996.80;;;;;;5067373;28;20471;-75
2022/04/02 05:44:53;;;;;;;23.08;15.57;;;307.20;2304.00;;;;;;5068975;28;20059;-75
2022/04/02 05:47:19;;;;;;;26.80;17.67;;;307.20;2304.00;;;;;;5096483;28;20047;-75
2022/04/02 05:49:47;;;;;;;25.58;19.38;;;282.50;2278.40;;;;;;5066635;28;20468;-75
2022/04/02 05:52:13;;;;;;;24.58;17.85;;;307.40;1920.00;;;;;;5085413;28;20459;-75
2022/04/02 05:54:39;;;;;;;25.80;16.58;;;;;;;;;;5055810;28;20433;-75
2022/04/02 05:57:05;;;;;;;25.65;19.77;;;;;;;;;;5057294;28;20029;-74
2022/04/02 05:59:33;;;;;;;24.67;17.33;;;;;;;;;;5069605;28;20383;-74
2022/04/02 06:01:59;;;;;;;23.88;18.02;;;;;;;;;;5069087;28;20021;-75
2022/04/02 06:04:25;;;;;;;23.13;18.95;;;;;;;;;;5069711;28;20028;-76
2022/04/02 06:06:51;;;;;;;24.00;17.45;;;;;;;;;;5070131;28;20074;-75
2022/04/02 06:09:17;;;;;;;19.73;17.27;;;;;;;;;;5070020;28;20025;-75
2022/04/02 06:11:45;;;;;;;21.55;17.60;;;;;;;;;;5070493;28;20024;-75
2022/04/02 06:14:13;;;;;;;24.30;18.77;;;;;;;;;;5071423;28;20055;-76
2022/04/02 06:16:39;;;;;;;26.40;20.17;;;;;;;;;;5069473;28;20111;-77
2022/04/02 06:19:05;;;;;;;18.48;15.98;;;;;;;;;;5066025;28;20055;-75
2022/04/02 06:21:33;;;;;;;21.30;16.65;;;;;;;;;;5067281;28;20025;-74
2022/04/02 06:24:04;;;;;;;23.00;17.60;;;;;;;;;;5066394;28;20021;-76
2022/04/02 06:26:30;;;;;;;26.80;17.67;;;;;;;;;;5058067;28;20445;-76
2022/04/02 06:28:59;;;;;;;19.17;13.32;;;;;;;;;;5075626;28;20089;-76
2022/04/02 06:31:25;;;;;;;20.05;15.88;;;;;;;;;;5068682;28;20024;-75
2022/04/02 06:33:51;;;;;;;23.50;19.52;;;;;;;;;;5069152;28;20151;-75
2022/04/02 06:36:17;;;;;;;30.48;22.90;;;;;;;;;;5066841;28;20055;-76
2022/04/02 06:38:43;;;;;;;33.72;24.27;;;;;;;;;;5067411;28;20376;-75
2022/04/02 06:41:09;;;;;;;28.45;24.13;;;;;;;;;;5068348;28;20027;-76
2022/04/02 06:43:35;;;;;;;27.95;22.17;;;333.20;2329.60;;;;;;5069567;28;20108;-75
2022/04/02 06:46:01;;;;;;;27.02;18.92;;;333.70;2329.60;;;;;;5069624;28;20111;-76
2022/04/02 06:48:26;;;;;;;43.35;31.95;;;333.30;2329.60;;;;;;5064560;28;20456;-76
2022/04/02 06:50:53;;;;;;;19.20;15.10;;;307.80;2304.00;;;;;;5067550;28;20032;-75
2022/04/02 06:53:20;;;;;;;37.65;21.63;;;282.40;2278.40;;;;;;5065218;28;20060;-76
2022/04/02 06:55:46;;;;;;;20.13;17.75;;;;;;;;;;5066193;28;20140;-76
2022/04/02 06:58:22;;;;;;;29.52;21.83;;;;;;;;;;5068959;28;20519;-76
2022/04/02 07:00:48;;;;;;;24.60;18.33;;;;;;;;;;5067671;28;20103;-75
2022/04/02 07:03:14;;;;;;;57.95;44.95;;;;;;;;;;5070048;28;20020;-75
2022/04/02 07:05:40;;;;;;;25.80;19.35;;;;;;;;;;5065846;28;20032;-75
2022/04/02 07:08:06;;;;;;;45.50;27.90;;;;;;;;;;5095834;28;20031;-76
2022/04/02 07:10:32;;;;;;;29.52;19.45;;;;;;;;;;5064993;28;20063;-75
2022/04/02 07:12:59;;;;;;;30.90;20.75;;;;;;;;;;5068563;28;20135;-75
2022/04/02 07:15:25;;;;;;;24.70;16.30;;;;;;;;;;5071523;28;20020;-75
2022/04/02 07:17:50;;;;;;;22.35;15.82;;;333.30;2329.60;;;;;;5072997;28;20024;-75
2022/04/02 07:20:18;;;;;;;36.53;26.17;;;333.20;2329.60;;;;;;5071461;28;20053;-75
2022/04/02 07:22:45;;;;;;;56.95;38.03;;;;;;;;;;5083556;28;20033;-75
2022/04/02 07:25:13;;;;;;;34.95;22.60;;;;;;;;;;5070915;28;20020;-76
2022/04/02 07:27:40;;;;;;;53.42;23.23;;;;;;;;;;5073519;28;20044;-76
2022/04/02 07:30:07;;;;;;;43.97;28.10;;;;;;;;;;5072404;28;20150;-78
2022/04/02 07:32:33;;;;;;;41.05;24.80;;;;;;;;;;5096753;28;20099;-78
2022/04/02 07:34:59;;;;;;;66.25;33.28;;;;;;;;;;5067934;28;20055;-78
2022/04/02 07:37:43;;;;;;;41.67;28.35;;;384.00;2329.60;;;;;;5071175;28;20448;-76
2022/04/02 07:40:16;;;;;;;60.47;30.73;;;359.30;2329.60;;;;;;5084503;28;20090;-74
2022/04/02 07:43:04;;;;;;;32.90;18.77;;;384.10;2329.60;;;;;;5071196;28;20025;-74
2022/04/02 07:45:41;;;;;;;34.20;22.50;;;384.80;2329.60;;;;;;5069489;28;20037;-76
2022/04/02 07:48:08;;;;;;;34.33;25.15;;;;;;;;;;5105106;28;20051;-76
2022/04/02 07:50:34;;;;;;;38.78;29.05;;;;;;;;;;5070154;28;20031;-76
2022/04/02 07:53:00;;;;;;;26.42;16.63;;;;;;;;;;5073435;28;20056;-75
2022/04/02 07:55:29;;;;;;;54.53;39.08;;;;;;;;;;5071416;28;20103;-75
2022/04/02 07:58:01;;;;;;;11.63;5.78;;;410.50;2355.20;;;;;;5069388;28;20017;-76
2022/04/02 08:00:27;;;;;;;21.15;7.40;;;410.40;1996.80;;;;;;5066904;28;20123;-76
2022/04/02 08:02:53;;;;;;;9.90;3.53;;;410.50;1920.00;;;;;;5069510;28;20107;-76
2022/04/02 08:05:21;;;;;;;9.57;3.38;;;410.10;1740.80;;;;;;5073172;28;20091;-75
2022/04/02 08:07:55;;;;;;;8.15;2.50;;;409.80;1766.40;;;;;;5065498;28;20052;-75
2022/04/02 08:10:23;;;;;;;2.45;1.55;;;409.90;1766.40;;;;;;5068655;28;20052;-76
2022/04/02 08:12:50;;;;;;;5.63;2.00;;;409.70;1740.80;;;;;;5070405;28;20049;-77
2022/04/02 08:15:19;;;;;;;3.53;1.27;;;409.80;1740.80;;;;;;5069319;28;20383;-75
2022/04/02 08:17:47;;;;;;;2.65;1.55;;;409.70;1715.20;;;;;;5104186;28;20533;-75
2022/04/02 08:20:17;;;;;;;5.25;1.95;;;409.80;1715.20;;;;;;5072868;28;20105;-75
2022/04/02 08:22:44;;;;;;;7.07;2.88;;;409.90;1715.20;;;;;;5072175;28;20028;-75
2022/04/02 08:25:11;;;;;;;13.55;2.80;;;;;;;;;;5066016;28;20115;-75
2022/04/02 08:27:46;;;;;;;8.80;5.35;;;435.50;1638.40;;;;;;5073954;28;20024;-80
2022/04/02 08:30:18;;;;;;;16.92;3.50;;;435.30;1638.40;;;;;;5087921;28;20062;-76
2022/04/02 08:33:12;;;;;;;11.05;4.47;;;435.50;1638.40;;;;;;5081058;28;20021;-76
2022/04/02 08:36:02;;;;;;;3.40;1.48;;;435.30;1612.80;;;;;;5070864;28;20028;-77
2022/04/02 08:38:46;;;;;;;23.50;15.13;;;435.40;1587.20;;;;;;5072722;28;20102;-76
2022/04/02 08:41:12;;;;;;;16.42;10.90;;;435.30;1638.40;;;;;;5071231;28;20021;-78
2022/04/02 08:43:56;;;;;;;11.63;1.92;;;435.50;1587.20;;;;;;5071543;28;20040;-78
2022/04/02 08:46:31;;;;;;;;;;;435.40;1587.20;;;;;;5072251;28;20028;-79
2022/04/02 08:48:58;;;;;;;7.18;1.80;;;460.80;1561.60;;;;;;5068936;28;19909;-79
2022/04/02 08:51:39;;;;;;;4.22;2.30;;;461.10;1536.00;;;;;;5104017;28;20020;-75
2022/04/02 08:54:07;;;;;;;7.07;1.15;;;;;;;;;;5066843;28;20488;-75
2022/04/02 08:56:38;;;;;;;3.78;1.30;;;;;;;;;;5070300;28;20048;-75
2022/04/02 08:59:06;;;;;;;8.13;1.50;;;;;;;;;;5066851;28;20074;-76
2022/04/02 09:01:43;;;;;;;2.95;1.67;;;;;;;;;;5063470;28;20100;-77
2022/04/02 09:04:16;;;;;;;5.10;1.90;;;;;;;;;;5068525;28;20078;-76
2022/04/02 09:07:13;;;;;;;9.25;1.50;;;486.40;1408.00;;;;;;5064082;28;20032;-79
2022/04/02 09:10:14;;;;;;;4.72;1.58;;;435.70;1408.00;;;;;;5019157;28;20487;-76
2022/04/02 09:13:26;;;;;;;4.75;1.85;;;435.90;1433.60;;;;;;5074511;28;20100;-79
2022/04/02 09:16:04;;;;;;;14.55;2.17;;;410.30;1638.40;;;;;;5067040;28;20519;-75
2022/04/02 09:18:30;;;;;;;3.38;1.10;;;308.00;2304.00;;;;;;5055205;28;20032;-74
2022/04/02 09:21:00;;;;;;;4.90;2.20;;;307.50;2304.00;;;;;;5069495;28;20024;-76
2022/04/02 09:23:58;;;;;;;9.65;3.83;;;307.60;2304.00;;;;;;5071846;28;20017;-76
2022/04/02 09:26:52;;;;;;;4.15;2.05;;;307.60;2304.00;;;;;;5104567;28;20035;-76
2022/04/02 09:29:28;;;;;;;3.63;2.55;;;307.60;2304.00;;;;;;5071140;28;20035;-77
2022/04/02 09:32:01;;;;;;;6.55;3.47;;;307.50;2304.00;;;;;;5067574;28;20033;-77
2022/04/02 09:35:04;;;;;;;9.00;3.60;;;308.10;2304.00;;;;;;5062434;28;20020;-76
2022/04/02 09:37:33;;;;;;;4.03;1.77;;;333.10;2329.60;;;;;;5050782;28;20074;-79
2022/04/02 09:40:10;;;;;;;4.47;2.53;;;333.20;2329.60;;;;;;5051578;28;20116;-80
2022/04/02 09:42:47;;;;;;;4.75;1.92;;;333.40;2329.60;;;;;;5064347;28;20090;-75
2022/04/02 09:45:14;;;;;;;4.00;1.63;;;358.50;2329.60;;;;;;5050352;28;20033;-78
2022/04/02 09:48:01;;;;;;;0.73;0.68;;;359.10;2329.60;;;;;;5061260;28;20070;-78
2022/04/02 09:50:29;;;;;;;2.63;1.20;;;359.30;2329.60;;;;;;5072506;28;20032;-77
2022/04/02 09:52:56;;;;;;;4.93;1.50;;;359.10;2329.60;;;;;;5067222;28;20043;-77
2022/04/02 09:55:27;;;;;;;2.22;0.98;;;359.10;2278.40;;;;;;5070203;28;20100;-76
2022/04/02 09:58:11;;;;;;;2.63;1.38;;;384.10;2073.60;;;;;;5068979;28;20021;-77
2022/04/02 10:01:04;;;;;;;4.20;1.50;;;384.20;1996.80;;;;;;5067492;28;20033;-78
2022/04/02 10:03:52;;;;;;;3.45;1.75;;;384.60;1894.40;;;;;;5065225;28;20025;-77
2022/04/02 10:06:20;;;;;;;7.85;2.25;;;384.80;1792.00;;;;;;5058552;28;20079;-78
2022/04/02 10:09:09;;;;;;;4.35;1.58;;;410.10;1740.80;;;;;;5059543;28;20035;-76
2022/04/02 10:11:43;;;;;;;5.85;2.20;;;410.30;1638.40;;;;;;5066656;28;20024;-76
2022/04/02 10:14:09;;;;;;;7.90;1.75;;;435.30;1561.60;;;;;;5100166;28;20532;-75
2022/04/02 10:16:36;;;;;;;10.57;2.28;;;435.60;1510.40;;;;;;5070486;28;20124;-75
2022/04/02 10:19:08;;;;;;;3.05;1.50;;;435.70;1484.80;;;;;;5070136;28;20021;-76
2022/04/02 10:21:36;;;;;;;12.77;3.05;;;435.60;1433.60;;;;;;5102091;28;20023;-77
2022/04/02 10:24:22;;;;;;;16.45;3.90;;;410.50;1331.20;;;;;;5069914;28;20021;-75
2022/04/02 10:26:53;;;;;;;9.80;2.22;;;410.50;1305.60;;;;;;5067240;28;20468;-75
2022/04/02 10:29:44;;;;;;;7.55;2.35;;;435.20;1203.20;;;;;;5071680;28;20025;-80
2022/04/02 10:32:18;;;;;;;4.28;2.03;;;410.50;1203.20;;;;;;5081836;28;20020;-82
2022/04/02 10:34:55;;;;;;;6.00;2.25;;;435.40;1203.20;;;;;;5087249;28;20040;-85
2022/04/02 10:37:25;;;;;;;6.93;2.20;;;;;;;;;;5054937;28;20082;-84
2022/04/02 10:40:05;;;;;;;5.82;2.35;;;;;;;;;;5068991;28;20021;-78
2022/04/02 10:42:35;;;;;;;5.47;3.25;;;;;;;;;;5072674;28;20021;-86
2022/04/02 10:45:07;;;;;;;4.75;1.63;;;;;;;;;;5072077;28;20103;-86
2022/04/02 10:47:38;;;;;;;14.20;2.40;;;;;;;;;;5070124;28;20035;-84
2022/04/02 10:50:06;;;;;;;6.70;2.08;;;;;;;;;;5071724;28;20082;-80
2022/04/02 10:52:32;;;;;;;10.93;4.90;;;;;;;;;;5076964;28;20020;-84
2022/04/02 10:54:59;;;;;;;7.80;2.10;;;;;;;;;;5073081;28;20069;-80
2022/04/02 10:57:28;;;;;;;11.45;2.42;;;;;;;;;;5078819;28;20529;-79
2022/04/02 10:59:59;;;;;;;5.72;2.10;;;;;;;;;;5080671;28;20025;-80
2022/04/02 11:02:33;;;;;;;4.47;2.17;;;;;;;;;;5078245;28;20044;-84
2022/04/02 11:05:03;;;;;;;9.27;3.50;;;;;;;;;;5074916;28;20124;-81
2022/04/02 11:07:35;;;;;;;4.80;1.67;;;;;;;;;;5072594;28;20021;-86
2022/04/02 11:10:01;;;;;;;5.07;2.28;;;;;;;;;;5074995;28;20027;-83
2022/04/02 11:12:41;;;;;;;7.03;2.75;;;;;;;;;;5078947;28;20032;-82
2022/04/02 11:15:08;;;;;;;8.25;2.78;;;;;;;;;;5076854;28;20029;-83
2022/04/02 11:17:41;;;;;;;6.97;1.88;;;;;;;;;;5078452;28;20024;-82
2022/04/02 11:20:15;;;;;;;13.77;3.30;;;461.00;972.80;;;;;;5075129;28;20107;-82
2022/04/02 11:22:59;;;;;;;7.03;1.70;;;436.10;921.60;;;;;;5074506;28;20070;-78
2022/04/02 11:25:25;;;;;;;;;;;;;;;;;;5075507;28;20032;-78
2022/04/02 11:27:55;;;;;;;11.20;3.13;;;;;;;;;;5073428;28;19991;-78
2022/04/02 11:30:26;;;;;;;14.23;3.63;;;486.40;921.60;;;;;;5074119;28;20383;-79
2022/04/02 11:33:01;;;;;;;4.65;2.00;;;461.70;896.00;;;;;;5071600;28;20037;-82
2022/04/02 11:35:30;;;;;;;7.57;2.42;;;461.30;921.60;;;;;;5075546;28;20055;-80
2022/04/02 11:38:07;;;;;;;7.65;1.92;;;461.40;896.00;;;;;;5075229;28;20036;-77
2022/04/02 11:40:36;;;;;;;5.30;2.33;;;486.50;870.40;;;;;;5076470;28;20028;-83
2022/04/02 11:43:03;;;;;;;4.63;2.67;;;487.00;870.40;;;;;;5075162;28;20357;-79
2022/04/02 11:45:30;;;;;;;5.22;2.45;;;487.10;896.00;;;;;;5072709;28;20043;-82
2022/04/02 11:48:07;;;;;;;8.65;2.53;;;487.10;896.00;;;;;;5073977;28;20029;-78
2022/04/02 11:50:34;;;;;;;7.35;2.47;;;;;;;;;;5070658;28;20032;-78
2022/04/02 11:53:00;;;;;;;8.93;2.38;;;461.10;921.60;;;;;;5075613;28;20032;-76
2022/04/02 11:55:27;;;;;;;5.20;2.00;;;435.70;870.40;;;;;;5075516;28;20069;-82
2022/04/02 11:58:00;;;;;;;6.20;2.17;;;461.30;870.40;;;;;;5074178;28;20494;-81
2022/04/02 12:00:27;;;;;;;5.00;2.13;;;461.20;870.40;;;;;;5073676;28;20062;-83
2022/04/02 12:02:57;;;;;;;6.60;2.00;;;460.90;870.40;;;;;;5073412;28;20025;-83
2022/04/02 12:05:34;;;;;;;7.53;2.28;;;;;;;;;;5074371;28;20082;-81
2022/04/02 12:08:00;;;;;;;5.55;2.17;;;461.70;870.40;;;;;;5076706;28;20017;-83
2022/04/02 12:10:27;;;;;;;9.30;2.10;;;;;;;;;;5076028;28;20035;-84
2022/04/02 12:12:58;;;;;;;5.82;2.00;;;;;;;;;;5067326;28;20136;-80
2022/04/02 12:15:25;;;;;;;12.45;7.45;;;;;;;;;;5101821;28;20086;-71
2022/04/02 12:17:52;;;;;;;26.35;20.05;;;;;;;;;;5069261;28;20029;-69
2022/04/02 12:20:19;;;;;;;23.45;16.73;;;;;;;;;;5072809;28;20017;-71
2022/04/02 12:22:46;;;;;;;23.58;14.20;;;;;;;;;;5069534;28;20383;-69
2022/04/02 12:25:18;;;;;;;13.68;8.45;;;;;;;;;;5057935;28;20024;-68
2022/04/02 12:27:49;;;;;;;10.10;4.67;;;;;;;;;;5073303;28;20027;-69
2022/04/02 12:30:20;;;;;;;13.40;5.40;;;;;;;;;;5063884;28;20422;-69
2022/04/02 12:32:46;;;;;;;5.90;3.13;;;;;;;;;;5053338;28;20029;-68
2022/04/02 12:35:12;;;;;;;8.05;5.05;;;;;;;;;;5065959;28;20028;-69
2022/04/02 12:37:45;;;;;;;9.88;4.65;;;;;;;;;;5069239;28;20024;-69
2022/04/02 12:40:11;;;;;;;;;;;;;;;;;;5073388;28;20024;-69
2022/04/02 12:42:41;;;;;;;4.55;2.25;;;;;;;;;;5101449;28;20261;-69
2022/04/02 12:45:16;;;;;;;11.75;3.90;;;;;;;;;;5071508;28;20020;-68
2022/04/02 12:48:03;;;;;;;6.82;3.15;;;;;;;;;;5065663;28;20025;-68
2022/04/02 12:50:36;;;;;;;11.20;4.13;;;;;;;;;;5077423;28;20399;-67
2022/04/02 12:53:02;;;;;;;;;;;;;;;;;;5051588;28;20041;-68
2022/04/02 12:55:29;;;;;;;5.75;2.88;;;;;;;;;;5052607;28;19995;-68
2022/04/02 12:58:02;;;;;;;6.72;3.10;;;;;;;;;;5052517;28;20033;-68
2022/04/02 13:00:39;;;;;;;10.88;5.25;;;;;;;;;;5052037;28;20029;-68
2022/04/02 13:03:06;;;;;;;7.68;2.78;;;;;;;;;;5064574;28;20154;-68
2022/04/02 13:05:46;;;;;;;10.48;3.40;;;;;;;;;;5072528;28;20056;-68
2022/04/02 13:08:18;;;;;;;5.60;3.28;;;;;;;;;;5072072;28;20047;-68
2022/04/02 13:10:48;;;;;;;13.88;3.63;;;;;;;;;;5071300;28;20089;-67
2022/04/02 13:13:14;;;;;;;9.25;4.07;;;;;;;;;;5065443;28;20220;-70
2022/04/02 13:15:41;;;;;;;12.27;5.10;;;;;;;;;;5071989;28;20021;-66
2022/04/02 13:20:59;;;;;;;10.55;3.17;;;;;;;;;;5072371;28;20043;-66
2022/04/02 13:23:34;;;;;;;7.97;3.85;;;;;;;;;;5071904;28;20085;-66
2022/04/02 13:26:04;;;;;;;14.30;4.03;;;;;;;;;;5070937;28;20028;-67
2022/04/02 13:28:36;;;;;;;8.32;3.25;;;;;;;;;;5071487;28;20021;-68
2022/04/02 13:31:03;;;;;;;9.93;4.25;;;;;;;;;;5072019;28;20116;-67
2022/04/02 13:33:32;;;;;;;7.60;4.07;;;;;;;;;;5072121;28;20037;-68
2022/04/02 13:36:07;;;;;;;12.57;7.05;;;;;;;;;;5071671;28;20025;-68
2022/04/02 13:38:48;;;;;;;6.78;3.63;;;;;;;;;;5072029;28;20055;-68
2022/04/02 13:41:15;;;;;;;7.25;3.10;;;;;;;;;;5072589;28;20054;-67
2022/04/02 13:43:52;;;;;;;10.25;5.45;;;;;;;;;;5072036;28;20021;-69
2022/04/02 13:46:21;;;;;;;8.73;3.72;;;;;;;;;;5071606;28;20027;-68
2022/04/02 13:48:47;;;;;;;8.95;3.80;;;;;;;;;;5071622;28;20025;-66
2022/04/02 13:51:14;;;;;;;10.25;5.78;;;;;;;;;;5071499;28;20483;-66